PWSweather.com
Personal Weather Stations
Station Observations
KCAOCEAN4
Jeffries Ranch, Oceanside, CA 92057

Jeffries RanchOceanside, CA 92057

Lat: 33.2463208, Lon: -117.25335080000002

Elevation: 207

Station Type: Davis Vantage Vue

jeffriesranchweather.com

High Low Average
Temperature 79.5°F26.4°C 46.9°F8.3°C 64.2°F17.9°C
Dew Point 56.8°F13.8°C 34.3°F1.3°C 44.7°F7.1°C
Winds 8.1 mph 13.0 kmh Calm Calm 2.0 mph S3.2 kmh S
Wind Gusts 15.0 mph24.1 kmh -- 6.0 mph9.7 kmh
Humidity 86% 22% 53%
Pressure 29.94 in1013.9 mb 29.82 in1009.8 mb -
Precipitation 0.00 in0.0 mm - -
Hour Temp Dew Point Humidity Winds Wind Gusts Pressure Precip Precip Rate Daily Precip Total
12:07 AM 55.0°F12.8°C 44.2°F6.8°C 67% Calm Calm 0.9 mph1.4 kmh 29.94 in1013.9 mb 0.00 in0.0 mm 0.00 in0.0 mm 0.00 in0.0 mm
12:17 AM 54.3°F12.4°C 44.1°F6.7°C 68% Calm Calm 0.9 mph1.4 kmh 29.95 in1014.2 mb 0.00 in0.0 mm 0.00 in0.0 mm 0.00 in0.0 mm
12:27 AM 54.3°F12.4°C 40.8°F4.9°C 60% Calm Calm 2.9 mph4.7 kmh 29.95 in1014.2 mb 0.00 in0.0 mm 0.00 in0.0 mm 0.00 in0.0 mm
12:37 AM 54.7°F12.6°C 40.3°F4.6°C 58% 2.0 mph E3.2 kmh E 2.9 mph4.7 kmh 29.95 in1014.2 mb 0.00 in0.0 mm 0.00 in0.0 mm 0.00 in0.0 mm
12:47 AM 54.3°F12.4°C 40.8°F4.9°C 60% 0.9 mph E1.4 kmh E 4.0 mph6.4 kmh 29.95 in1014.2 mb 0.00 in0.0 mm 0.00 in0.0 mm 0.00 in0.0 mm
12:57 AM 53.8°F12.1°C 42.6°F5.9°C 66% Calm Calm 2.0 mph3.2 kmh 29.94 in1013.9 mb 0.00 in0.0 mm 0.00 in0.0 mm 0.00 in0.0 mm
01:07 AM 53.1°F11.7°C 43.2°F6.2°C 69% Calm Calm 1.0 mph1.6 kmh 29.94 in1013.9 mb 0.00 in0.0 mm 0.00 in0.0 mm 0.00 in0.0 mm
01:17 AM 53.2°F11.8°C 40.6°F4.8°C 62% 0.9 mph NE1.4 kmh NE 2.0 mph3.2 kmh 29.94 in1013.9 mb 0.00 in0.0 mm 0.00 in0.0 mm 0.00 in0.0 mm
01:27 AM 52.9°F11.6°C 39.7°F4.3°C 61% 0.9 mph ENE1.4 kmh ENE 3.0 mph4.8 kmh 29.94 in1013.9 mb 0.00 in0.0 mm 0.00 in0.0 mm 0.00 in0.0 mm
01:37 AM 52.5°F11.4°C 39.0°F3.9°C 60% Calm Calm 2.9 mph4.7 kmh 29.93 in1013.5 mb 0.00 in0.0 mm 0.00 in0.0 mm 0.00 in0.0 mm
01:47 AM 52.5°F11.4°C 39.0°F3.9°C 60% 0.9 mph ENE1.4 kmh ENE 2.9 mph4.7 kmh 29.93 in1013.5 mb 0.00 in0.0 mm 0.00 in0.0 mm 0.00 in0.0 mm
01:57 AM 51.8°F11.0°C 39.6°F4.2°C 63% 0.9 mph E1.4 kmh E 4.0 mph6.4 kmh 29.93 in1013.5 mb 0.00 in0.0 mm 0.00 in0.0 mm 0.00 in0.0 mm
02:07 AM 51.4°F10.8°C 38.8°F3.8°C 62% 0.9 mph E1.4 kmh E 2.9 mph4.7 kmh 29.93 in1013.5 mb 0.00 in0.0 mm 0.00 in0.0 mm 0.00 in0.0 mm
02:17 AM 51.4°F10.8°C 38.5°F3.6°C 61% 0.9 mph ENE1.4 kmh ENE 4.0 mph6.4 kmh 29.93 in1013.5 mb 0.00 in0.0 mm 0.00 in0.0 mm 0.00 in0.0 mm
02:27 AM 51.4°F10.8°C 38.8°F3.8°C 62% 2.9 mph E4.7 kmh E 4.0 mph6.4 kmh 29.93 in1013.5 mb 0.00 in0.0 mm 0.00 in0.0 mm 0.00 in0.0 mm
02:37 AM 51.3°F10.7°C 41.0°F5.0°C 68% 0.9 mph E1.4 kmh E 2.0 mph3.2 kmh 29.92 in1013.2 mb 0.00 in0.0 mm 0.00 in0.0 mm 0.00 in0.0 mm
02:47 AM 50.7°F10.4°C 41.0°F5.0°C 69% Calm Calm 0.9 mph1.4 kmh 29.92 in1013.2 mb 0.00 in0.0 mm 0.00 in0.0 mm 0.00 in0.0 mm
02:57 AM 50.4°F10.2°C 39.0°F3.9°C 65% 0.9 mph E1.4 kmh E 4.0 mph6.4 kmh 29.92 in1013.2 mb 0.00 in0.0 mm 0.00 in0.0 mm 0.00 in0.0 mm
03:07 AM 49.5°F9.7°C 38.7°F3.7°C 66% 2.0 mph E3.2 kmh E 6.0 mph9.7 kmh 29.92 in1013.2 mb 0.00 in0.0 mm 0.00 in0.0 mm 0.00 in0.0 mm
03:17 AM 49.3°F9.6°C 38.5°F3.6°C 66% 2.0 mph NE3.2 kmh NE 4.9 mph7.9 kmh 29.92 in1013.2 mb 0.00 in0.0 mm 0.00 in0.0 mm 0.00 in0.0 mm
03:27 AM 49.3°F9.6°C 38.5°F3.6°C 66% 2.0 mph NE3.2 kmh NE 4.9 mph7.9 kmh 29.92 in1013.2 mb 0.00 in0.0 mm 0.00 in0.0 mm 0.00 in0.0 mm
03:37 AM 48.6°F9.2°C 38.1°F3.4°C 67% 2.0 mph ENE3.2 kmh ENE 4.9 mph7.9 kmh 29.93 in1013.5 mb 0.00 in0.0 mm 0.00 in0.0 mm 0.00 in0.0 mm
03:47 AM 48.9°F9.4°C 38.1°F3.4°C 66% 2.0 mph E3.2 kmh E 4.0 mph6.4 kmh 29.92 in1013.2 mb 0.00 in0.0 mm 0.00 in0.0 mm 0.00 in0.0 mm
03:57 AM 48.9°F9.4°C 38.1°F3.4°C 66% 2.0 mph ENE3.2 kmh ENE 4.0 mph6.4 kmh 29.92 in1013.2 mb 0.00 in0.0 mm 0.00 in0.0 mm 0.00 in0.0 mm
04:07 AM 48.7°F9.3°C 37.9°F3.3°C 66% 2.0 mph ENE3.2 kmh ENE 4.9 mph7.9 kmh 29.92 in1013.2 mb 0.00 in0.0 mm 0.00 in0.0 mm 0.00 in0.0 mm
04:17 AM 48.4°F9.1°C 37.9°F3.3°C 67% 2.0 mph ENE3.2 kmh ENE 4.9 mph7.9 kmh 29.92 in1013.2 mb 0.00 in0.0 mm 0.00 in0.0 mm 0.00 in0.0 mm
04:27 AM 48.4°F9.1°C 37.6°F3.1°C 66% 2.0 mph NE3.2 kmh NE 4.9 mph7.9 kmh 29.92 in1013.2 mb 0.00 in0.0 mm 0.00 in0.0 mm 0.00 in0.0 mm
04:37 AM 48.2°F9.0°C 37.8°F3.2°C 67% 2.0 mph E3.2 kmh E 5.0 mph8.0 kmh 29.91 in1012.9 mb 0.00 in0.0 mm 0.00 in0.0 mm 0.00 in0.0 mm
04:47 AM 47.8°F8.8°C 37.8°F3.2°C 68% 2.0 mph NE3.2 kmh NE 4.9 mph7.9 kmh 29.91 in1012.9 mb 0.00 in0.0 mm 0.00 in0.0 mm 0.00 in0.0 mm
04:57 AM 47.5°F8.6°C 37.4°F3.0°C 68% 2.0 mph E3.2 kmh E 5.0 mph8.0 kmh 29.91 in1012.9 mb 0.00 in0.0 mm 0.00 in0.0 mm 0.00 in0.0 mm
05:07 AM 47.5°F8.6°C 37.0°F2.8°C 67% 2.9 mph ENE4.7 kmh ENE 6.0 mph9.7 kmh 29.91 in1012.9 mb 0.00 in0.0 mm 0.00 in0.0 mm 0.00 in0.0 mm
05:17 AM 47.5°F8.6°C 37.0°F2.8°C 67% 2.9 mph ENE4.7 kmh ENE 7.0 mph11.3 kmh 29.91 in1012.9 mb 0.00 in0.0 mm 0.00 in0.0 mm 0.00 in0.0 mm
05:27 AM 47.5°F8.6°C 37.0°F2.8°C 67% 2.0 mph ENE3.2 kmh ENE 4.9 mph7.9 kmh 29.91 in1012.9 mb 0.00 in0.0 mm 0.00 in0.0 mm 0.00 in0.0 mm
05:37 AM 47.3°F8.5°C 36.5°F2.5°C 66% 2.0 mph ENE3.2 kmh ENE 8.1 mph13.0 kmh 29.91 in1012.9 mb 0.00 in0.0 mm 0.00 in0.0 mm 0.00 in0.0 mm
05:47 AM 47.1°F8.4°C 36.7°F2.6°C 67% 4.0 mph ENE6.4 kmh ENE 8.1 mph13.0 kmh 29.91 in1012.9 mb 0.00 in0.0 mm 0.00 in0.0 mm 0.00 in0.0 mm
05:57 AM 47.1°F8.4°C 36.0°F2.2°C 65% 2.9 mph NE4.7 kmh NE 8.9 mph14.3 kmh 29.91 in1012.9 mb 0.00 in0.0 mm 0.00 in0.0 mm 0.00 in0.0 mm
06:07 AM 46.9°F8.3°C 36.1°F2.3°C 66% 2.9 mph E4.7 kmh E 8.1 mph13.0 kmh 29.91 in1012.9 mb 0.00 in0.0 mm 0.00 in0.0 mm 0.00 in0.0 mm
06:17 AM 47.1°F8.4°C 36.0°F2.2°C 65% 2.9 mph E4.7 kmh E 6.0 mph9.7 kmh 29.91 in1012.9 mb 0.00 in0.0 mm 0.00 in0.0 mm 0.00 in0.0 mm
06:27 AM 47.8°F8.8°C 36.7°F2.6°C 65% 4.0 mph E6.4 kmh E 7.0 mph11.3 kmh 29.91 in1012.9 mb 0.00 in0.0 mm 0.00 in0.0 mm 0.00 in0.0 mm
06:37 AM 48.6°F9.2°C 36.5°F2.5°C 63% 2.0 mph E3.2 kmh E 6.9 mph11.1 kmh 29.91 in1012.9 mb 0.00 in0.0 mm 0.00 in0.0 mm 0.00 in0.0 mm
06:47 AM 49.3°F9.6°C 36.3°F2.4°C 61% 2.9 mph ENE4.7 kmh ENE 6.0 mph9.7 kmh 29.91 in1012.9 mb 0.00 in0.0 mm 0.00 in0.0 mm 0.00 in0.0 mm
06:57 AM 50.2°F10.1°C 36.3°F2.4°C 59% 2.0 mph NE3.2 kmh NE 8.9 mph14.3 kmh 29.92 in1013.2 mb 0.00 in0.0 mm 0.00 in0.0 mm 0.00 in0.0 mm
07:07 AM 51.1°F10.6°C 36.3°F2.4°C 57% 2.9 mph NE4.7 kmh NE 8.9 mph14.3 kmh 29.92 in1013.2 mb 0.00 in0.0 mm 0.00 in0.0 mm 0.00 in0.0 mm
07:17 AM 52.0°F11.1°C 36.3°F2.4°C 55% 2.0 mph ENE3.2 kmh ENE 4.9 mph7.9 kmh 29.92 in1013.2 mb 0.00 in0.0 mm 0.00 in0.0 mm 0.00 in0.0 mm
07:27 AM 53.2°F11.8°C 36.1°F2.3°C 52% 2.0 mph E3.2 kmh E 4.9 mph7.9 kmh 29.92 in1013.2 mb 0.00 in0.0 mm 0.00 in0.0 mm 0.00 in0.0 mm
07:37 AM 55.0°F12.8°C 37.2°F2.9°C 51% 0.9 mph ENE1.4 kmh ENE 2.9 mph4.7 kmh 29.92 in1013.2 mb 0.00 in0.0 mm 0.00 in0.0 mm 0.00 in0.0 mm
07:47 AM 57.0°F13.9°C 37.6°F3.1°C 48% 0.9 mph E1.4 kmh E 2.9 mph4.7 kmh 29.93 in1013.5 mb 0.00 in0.0 mm 0.00 in0.0 mm 0.00 in0.0 mm
07:57 AM 58.1°F14.5°C 36.9°F2.7°C 45% 2.0 mph NNE3.2 kmh NNE 4.0 mph6.4 kmh 29.93 in1013.5 mb 0.00 in0.0 mm 0.00 in0.0 mm 0.00 in0.0 mm
08:07 AM 59.5°F15.3°C 37.0°F2.8°C 43% 2.0 mph NNW3.2 kmh NNW 4.9 mph7.9 kmh 29.92 in1013.2 mb 0.00 in0.0 mm 0.00 in0.0 mm 0.00 in0.0 mm
08:17 AM 61.2°F16.2°C 36.7°F2.6°C 40% 2.0 mph NE3.2 kmh NE 8.9 mph14.3 kmh 29.92 in1013.2 mb 0.00 in0.0 mm 0.00 in0.0 mm 0.00 in0.0 mm
08:27 AM 62.4°F16.9°C 37.2°F2.9°C 39% 4.0 mph E6.4 kmh E 8.1 mph13.0 kmh 29.92 in1013.2 mb 0.00 in0.0 mm 0.00 in0.0 mm 0.00 in0.0 mm
08:37 AM 63.9°F17.7°C 37.8°F3.2°C 38% 2.9 mph NE4.7 kmh NE 6.0 mph9.7 kmh 29.92 in1013.2 mb 0.00 in0.0 mm 0.00 in0.0 mm 0.00 in0.0 mm
08:47 AM 65.8°F18.8°C 36.7°F2.6°C 34% 2.9 mph ENE4.7 kmh ENE 6.0 mph9.7 kmh 29.92 in1013.2 mb 0.00 in0.0 mm 0.00 in0.0 mm 0.00 in0.0 mm
08:57 AM 67.8°F19.9°C 36.9°F2.7°C 32% 0.9 mph NE1.4 kmh NE 4.0 mph6.4 kmh 29.92 in1013.2 mb 0.00 in0.0 mm 0.00 in0.0 mm 0.00 in0.0 mm
09:07 AM 69.6°F20.9°C 37.6°F3.1°C 31% Calm Calm 2.9 mph4.7 kmh 29.92 in1013.2 mb 0.00 in0.0 mm 0.00 in0.0 mm 0.00 in0.0 mm
09:17 AM 71.1°F21.7°C 36.3°F2.4°C 28% Calm Calm 0.9 mph1.4 kmh 29.91 in1012.9 mb 0.00 in0.0 mm 0.00 in0.0 mm 0.00 in0.0 mm
09:28 AM 72.3°F22.4°C 37.4°F3.0°C 28% Calm Calm 2.0 mph3.2 kmh 29.91 in1012.9 mb 0.00 in0.0 mm 0.00 in0.0 mm 0.00 in0.0 mm
09:38 AM 73.8°F23.2°C 34.7°F1.5°C 24% Calm Calm 2.0 mph3.2 kmh 29.91 in1012.9 mb 0.00 in0.0 mm 0.00 in0.0 mm 0.00 in0.0 mm
09:48 AM 74.7°F23.7°C 34.3°F1.3°C 23% 0.9 mph SE1.4 kmh SE 2.0 mph3.2 kmh 29.91 in1012.9 mb 0.00 in0.0 mm 0.00 in0.0 mm 0.00 in0.0 mm
09:58 AM 75.6°F24.2°C 37.2°F2.9°C 25% Calm Calm 3.0 mph4.8 kmh 29.91 in1012.9 mb 0.00 in0.0 mm 0.00 in0.0 mm 0.00 in0.0 mm
10:08 AM 75.9°F24.4°C 36.5°F2.5°C 24% 0.9 mph SW1.4 kmh SW 4.0 mph6.4 kmh 29.90 in1012.5 mb 0.00 in0.0 mm 0.00 in0.0 mm 0.00 in0.0 mm
10:18 AM 77.4°F25.2°C 35.6°F2.0°C 22% Calm Calm 4.9 mph7.9 kmh 29.90 in1012.5 mb 0.00 in0.0 mm 0.00 in0.0 mm 0.00 in0.0 mm
10:28 AM 77.4°F25.2°C 37.8°F3.2°C 24% 2.0 mph SE3.2 kmh SE 4.9 mph7.9 kmh 29.90 in1012.5 mb 0.00 in0.0 mm 0.00 in0.0 mm 0.00 in0.0 mm
10:38 AM 77.2°F25.1°C 36.5°F2.5°C 23% 2.0 mph WNW3.2 kmh WNW 6.0 mph9.7 kmh 29.90 in1012.5 mb 0.00 in0.0 mm 0.00 in0.0 mm 0.00 in0.0 mm
10:48 AM 77.7°F25.4°C 37.0°F2.8°C 23% 2.9 mph NW4.7 kmh NW 4.9 mph7.9 kmh 29.90 in1012.5 mb 0.00 in0.0 mm 0.00 in0.0 mm 0.00 in0.0 mm
10:58 AM 78.6°F25.9°C 39.9°F4.4°C 25% 2.9 mph W4.7 kmh W 8.1 mph13.0 kmh 29.90 in1012.5 mb 0.00 in0.0 mm 0.00 in0.0 mm 0.00 in0.0 mm
11:08 AM 78.4°F25.8°C 40.6°F4.8°C 26% 4.0 mph NW6.4 kmh NW 11.0 mph17.7 kmh 29.89 in1012.2 mb 0.00 in0.0 mm 0.00 in0.0 mm 0.00 in0.0 mm
11:18 AM 78.3°F25.7°C 40.6°F4.8°C 26% 4.9 mph WNW7.9 kmh WNW 10.1 mph16.3 kmh 29.89 in1012.2 mb 0.00 in0.0 mm 0.00 in0.0 mm 0.00 in0.0 mm
11:28 AM 79.3°F26.3°C 40.5°F4.7°C 25% 4.0 mph SSW6.4 kmh SSW 10.1 mph16.3 kmh 29.89 in1012.2 mb 0.00 in0.0 mm 0.00 in0.0 mm 0.00 in0.0 mm
11:38 AM 79.3°F26.3°C 41.5°F5.3°C 26% 4.0 mph WSW6.4 kmh WSW 8.1 mph13.0 kmh 29.89 in1012.2 mb 0.00 in0.0 mm 0.00 in0.0 mm 0.00 in0.0 mm
11:48 AM 79.3°F26.3°C 41.5°F5.3°C 26% 4.9 mph NW7.9 kmh NW 9.0 mph14.5 kmh 29.88 in1011.9 mb 0.00 in0.0 mm 0.00 in0.0 mm 0.00 in0.0 mm
11:58 AM 79.5°F26.4°C 40.6°F4.8°C 25% 4.9 mph NW7.9 kmh NW 13.0 mph20.9 kmh 29.88 in1011.9 mb 0.00 in0.0 mm 0.00 in0.0 mm 0.00 in0.0 mm
12:08 PM 78.6°F25.9°C 40.8°F4.9°C 26% 6.0 mph SW9.7 kmh SW 11.0 mph17.7 kmh 29.88 in1011.9 mb 0.00 in0.0 mm 0.00 in0.0 mm 0.00 in0.0 mm
12:18 PM 79.0°F26.1°C 41.2°F5.1°C 26% 4.9 mph WSW7.9 kmh WSW 11.0 mph17.7 kmh 29.88 in1011.9 mb 0.00 in0.0 mm 0.00 in0.0 mm 0.00 in0.0 mm
12:28 PM 78.4°F25.8°C 40.6°F4.8°C 26% 4.9 mph SW7.9 kmh SW 11.0 mph17.7 kmh 29.88 in1011.9 mb 0.00 in0.0 mm 0.00 in0.0 mm 0.00 in0.0 mm
12:38 PM 77.9°F25.5°C 42.3°F5.7°C 28% 6.0 mph WNW9.7 kmh WNW 12.1 mph19.5 kmh 29.88 in1011.9 mb 0.00 in0.0 mm 0.00 in0.0 mm 0.00 in0.0 mm
12:48 PM 77.5°F25.3°C 43.7°F6.5°C 30% 6.9 mph W11.1 kmh W 12.1 mph19.5 kmh 29.87 in1011.5 mb 0.00 in0.0 mm 0.00 in0.0 mm 0.00 in0.0 mm
12:58 PM 78.3°F25.7°C 45.1°F7.3°C 31% 4.9 mph WNW7.9 kmh WNW 8.9 mph14.3 kmh 29.87 in1011.5 mb 0.00 in0.0 mm 0.00 in0.0 mm 0.00 in0.0 mm
01:08 PM 78.6°F25.9°C 46.2°F7.9°C 32% 4.0 mph WSW6.4 kmh WSW 8.9 mph14.3 kmh 29.87 in1011.5 mb 0.00 in0.0 mm 0.00 in0.0 mm 0.00 in0.0 mm
01:18 PM 77.7°F25.4°C 48.6°F9.2°C 36% 6.0 mph WSW9.7 kmh WSW 11.0 mph17.7 kmh 29.86 in1011.2 mb 0.00 in0.0 mm 0.00 in0.0 mm 0.00 in0.0 mm
01:28 PM 77.5°F25.3°C 49.3°F9.6°C 37% 4.9 mph SW7.9 kmh SW 13.0 mph20.9 kmh 29.86 in1011.2 mb 0.00 in0.0 mm 0.00 in0.0 mm 0.00 in0.0 mm
01:38 PM 78.3°F25.7°C 49.1°F9.5°C 36% 4.0 mph W6.4 kmh W 11.0 mph17.7 kmh 29.85 in1010.8 mb 0.00 in0.0 mm 0.00 in0.0 mm 0.00 in0.0 mm
01:48 PM 78.3°F25.7°C 47.7°F8.7°C 34% 4.9 mph S7.9 kmh S 10.1 mph16.3 kmh 29.85 in1010.8 mb 0.00 in0.0 mm 0.00 in0.0 mm 0.00 in0.0 mm
01:58 PM 77.5°F25.3°C 46.2°F7.9°C 33% 6.0 mph SSW9.7 kmh SSW 11.0 mph17.7 kmh 29.85 in1010.8 mb 0.00 in0.0 mm 0.00 in0.0 mm 0.00 in0.0 mm
02:08 PM 78.4°F25.8°C 44.4°F6.9°C 30% 4.9 mph WNW7.9 kmh WNW 11.0 mph17.7 kmh 29.85 in1010.8 mb 0.00 in0.0 mm 0.00 in0.0 mm 0.00 in0.0 mm
02:18 PM 78.4°F25.8°C 44.4°F6.9°C 30% 6.0 mph WSW9.7 kmh WSW 11.0 mph17.7 kmh 29.85 in1010.8 mb 0.00 in0.0 mm 0.00 in0.0 mm 0.00 in0.0 mm
02:28 PM 78.3°F25.7°C 41.5°F5.3°C 27% 6.9 mph W11.1 kmh W 12.1 mph19.5 kmh 29.85 in1010.8 mb 0.00 in0.0 mm 0.00 in0.0 mm 0.00 in0.0 mm
02:38 PM 77.9°F25.5°C 44.8°F7.1°C 31% 8.1 mph SSW13.0 kmh SSW 13.0 mph20.9 kmh 29.85 in1010.8 mb 0.00 in0.0 mm 0.00 in0.0 mm 0.00 in0.0 mm
02:48 PM 76.6°F24.8°C 49.8°F9.9°C 39% 8.1 mph WSW13.0 kmh WSW 15.0 mph24.1 kmh 29.85 in1010.8 mb 0.00 in0.0 mm 0.00 in0.0 mm 0.00 in0.0 mm
02:58 PM 76.8°F24.9°C 48.6°F9.2°C 37% 6.9 mph WSW11.1 kmh WSW 14.1 mph22.7 kmh 29.84 in1010.5 mb 0.00 in0.0 mm 0.00 in0.0 mm 0.00 in0.0 mm
03:08 PM 76.8°F24.9°C 49.3°F9.6°C 38% 6.0 mph W9.7 kmh W 12.1 mph19.5 kmh 29.84 in1010.5 mb 0.00 in0.0 mm 0.00 in0.0 mm 0.00 in0.0 mm
03:18 PM 76.5°F24.7°C 48.9°F9.4°C 38% 6.9 mph W11.1 kmh W 12.1 mph19.5 kmh 29.84 in1010.5 mb 0.00 in0.0 mm 0.00 in0.0 mm 0.00 in0.0 mm
03:28 PM 75.9°F24.4°C 50.5°F10.3°C 41% 6.0 mph WSW9.7 kmh WSW 12.1 mph19.5 kmh 29.84 in1010.5 mb 0.00 in0.0 mm 0.00 in0.0 mm 0.00 in0.0 mm
03:38 PM 76.1°F24.5°C 48.0°F8.9°C 37% 4.9 mph WSW7.9 kmh WSW 12.1 mph19.5 kmh 29.84 in1010.5 mb 0.00 in0.0 mm 0.00 in0.0 mm 0.00 in0.0 mm
03:48 PM 76.1°F24.5°C 49.3°F9.6°C 39% 6.0 mph SW9.7 kmh SW 11.0 mph17.7 kmh 29.83 in1010.2 mb 0.00 in0.0 mm 0.00 in0.0 mm 0.00 in0.0 mm
03:58 PM 76.3°F24.6°C 48.7°F9.3°C 38% 4.9 mph SW7.9 kmh SW 11.0 mph17.7 kmh 29.83 in1010.2 mb 0.00 in0.0 mm 0.00 in0.0 mm 0.00 in0.0 mm
04:08 PM 75.9°F24.4°C 48.6°F9.2°C 38% 4.9 mph SW7.9 kmh SW 10.1 mph16.3 kmh 29.83 in1010.2 mb 0.00 in0.0 mm 0.00 in0.0 mm 0.00 in0.0 mm
04:18 PM 75.4°F24.1°C 45.9°F7.7°C 35% 4.9 mph ESE7.9 kmh ESE 11.0 mph17.7 kmh 29.83 in1010.2 mb 0.00 in0.0 mm 0.00 in0.0 mm 0.00 in0.0 mm
04:28 PM 75.6°F24.2°C 48.2°F9.0°C 38% 4.0 mph SW6.4 kmh SW 8.9 mph14.3 kmh 29.83 in1010.2 mb 0.00 in0.0 mm 0.00 in0.0 mm 0.00 in0.0 mm
04:38 PM 74.8°F23.8°C 46.8°F8.2°C 37% 6.0 mph NW9.7 kmh NW 10.1 mph16.3 kmh 29.83 in1010.2 mb 0.00 in0.0 mm 0.00 in0.0 mm 0.00 in0.0 mm
04:48 PM 74.5°F23.6°C 49.3°F9.6°C 41% 4.9 mph WSW7.9 kmh WSW 10.1 mph16.3 kmh 29.83 in1010.2 mb 0.00 in0.0 mm 0.00 in0.0 mm 0.00 in0.0 mm
04:58 PM 75.0°F23.9°C 49.6°F9.8°C 41% 4.9 mph W7.9 kmh W 8.9 mph14.3 kmh 29.83 in1010.2 mb 0.00 in0.0 mm 0.00 in0.0 mm 0.00 in0.0 mm
05:08 PM 74.8°F23.8°C 46.8°F8.2°C 37% 2.9 mph S4.7 kmh S 6.9 mph11.1 kmh 29.83 in1010.2 mb 0.00 in0.0 mm 0.00 in0.0 mm 0.00 in0.0 mm
05:18 PM 74.1°F23.4°C 48.9°F9.4°C 41% 4.0 mph WNW6.4 kmh WNW 8.1 mph13.0 kmh 29.83 in1010.2 mb 0.00 in0.0 mm 0.00 in0.0 mm 0.00 in0.0 mm
05:28 PM 73.8°F23.2°C 49.3°F9.6°C 42% 4.9 mph WNW7.9 kmh WNW 8.1 mph13.0 kmh 29.83 in1010.2 mb 0.00 in0.0 mm 0.00 in0.0 mm 0.00 in0.0 mm
05:38 PM 73.9°F23.3°C 48.7°F9.3°C 41% 4.9 mph WSW7.9 kmh WSW 8.9 mph14.3 kmh 29.83 in1010.2 mb 0.00 in0.0 mm 0.00 in0.0 mm 0.00 in0.0 mm
05:48 PM 73.2°F22.9°C 48.7°F9.3°C 42% 6.0 mph W9.7 kmh W 8.9 mph14.3 kmh 29.83 in1010.2 mb 0.00 in0.0 mm 0.00 in0.0 mm 0.00 in0.0 mm
05:58 PM 73.0°F22.8°C 49.8°F9.9°C 44% 4.9 mph WSW7.9 kmh WSW 8.1 mph13.0 kmh 29.83 in1010.2 mb 0.00 in0.0 mm 0.00 in0.0 mm 0.00 in0.0 mm
06:08 PM 72.7°F22.6°C 50.7°F10.4°C 46% 4.9 mph WSW7.9 kmh WSW 6.9 mph11.1 kmh 29.83 in1010.2 mb 0.00 in0.0 mm 0.00 in0.0 mm 0.00 in0.0 mm
06:18 PM 72.9°F22.7°C 50.9°F10.5°C 46% 2.9 mph W4.7 kmh W 6.0 mph9.7 kmh 29.82 in1009.8 mb 0.00 in0.0 mm 0.00 in0.0 mm 0.00 in0.0 mm
06:28 PM 72.7°F22.6°C 52.3°F11.3°C 49% 2.9 mph W4.7 kmh W 8.9 mph14.3 kmh 29.82 in1009.8 mb 0.00 in0.0 mm 0.00 in0.0 mm 0.00 in0.0 mm
06:38 PM 72.0°F22.2°C 52.3°F11.3°C 50% 4.0 mph W6.4 kmh W 6.0 mph9.7 kmh 29.82 in1009.8 mb 0.00 in0.0 mm 0.00 in0.0 mm 0.00 in0.0 mm
06:48 PM 71.6°F22.0°C 53.6°F12.0°C 53% 2.9 mph WNW4.7 kmh WNW 6.0 mph9.7 kmh 29.82 in1009.8 mb 0.00 in0.0 mm 0.00 in0.0 mm 0.00 in0.0 mm
06:58 PM 70.9°F21.6°C 53.4°F11.9°C 54% 2.9 mph WSW4.7 kmh WSW 4.9 mph7.9 kmh 29.82 in1009.8 mb 0.00 in0.0 mm 0.00 in0.0 mm 0.00 in0.0 mm
07:08 PM 70.0°F21.1°C 52.0°F11.1°C 53% 2.0 mph W3.2 kmh W 4.9 mph7.9 kmh 29.82 in1009.8 mb 0.00 in0.0 mm 0.00 in0.0 mm 0.00 in0.0 mm
07:18 PM 68.7°F20.4°C 52.9°F11.6°C 57% 2.9 mph W4.7 kmh W 4.9 mph7.9 kmh 29.83 in1010.2 mb 0.00 in0.0 mm 0.00 in0.0 mm 0.00 in0.0 mm
07:28 PM 67.6°F19.8°C 52.3°F11.3°C 58% 2.0 mph WSW3.2 kmh WSW 4.0 mph6.4 kmh 29.83 in1010.2 mb 0.00 in0.0 mm 0.00 in0.0 mm 0.00 in0.0 mm
07:38 PM 66.9°F19.4°C 53.4°F11.9°C 62% 0.9 mph WSW1.4 kmh WSW 2.9 mph4.7 kmh 29.83 in1010.2 mb 0.00 in0.0 mm 0.00 in0.0 mm 0.00 in0.0 mm
07:48 PM 66.6°F19.2°C 54.0°F12.2°C 64% Calm Calm 0.9 mph1.4 kmh 29.83 in1010.2 mb 0.00 in0.0 mm 0.00 in0.0 mm 0.00 in0.0 mm
07:58 PM 65.8°F18.8°C 54.5°F12.5°C 67% Calm Calm -- 29.83 in1010.2 mb 0.00 in0.0 mm 0.00 in0.0 mm 0.00 in0.0 mm
08:08 PM 65.3°F18.5°C 54.5°F12.5°C 68% Calm Calm 1.0 mph1.6 kmh 29.83 in1010.2 mb 0.00 in0.0 mm 0.00 in0.0 mm 0.00 in0.0 mm
08:18 PM 64.9°F18.3°C 54.9°F12.7°C 70% Calm Calm 0.9 mph1.4 kmh 29.83 in1010.2 mb 0.00 in0.0 mm 0.00 in0.0 mm 0.00 in0.0 mm
08:28 PM 64.4°F18.0°C 54.9°F12.7°C 71% Calm Calm 0.9 mph1.4 kmh 29.83 in1010.2 mb 0.00 in0.0 mm 0.00 in0.0 mm 0.00 in0.0 mm
08:38 PM 64.0°F17.8°C 55.2°F12.9°C 73% Calm Calm -- 29.83 in1010.2 mb 0.00 in0.0 mm 0.00 in0.0 mm 0.00 in0.0 mm
08:48 PM 63.9°F17.7°C 56.8°F13.8°C 78% Calm Calm 2.0 mph3.2 kmh 29.84 in1010.5 mb 0.00 in0.0 mm 0.00 in0.0 mm 0.00 in0.0 mm
08:58 PM 63.3°F17.4°C 56.3°F13.5°C 78% Calm Calm 2.0 mph3.2 kmh 29.84 in1010.5 mb 0.00 in0.0 mm 0.00 in0.0 mm 0.00 in0.0 mm
09:08 PM 63.1°F17.3°C 56.5°F13.6°C 79% Calm Calm 0.9 mph1.4 kmh 29.84 in1010.5 mb 0.00 in0.0 mm 0.00 in0.0 mm 0.00 in0.0 mm
09:18 PM 62.8°F17.1°C 56.5°F13.6°C 80% Calm Calm 0.9 mph1.4 kmh 29.85 in1010.8 mb 0.00 in0.0 mm 0.00 in0.0 mm 0.00 in0.0 mm
09:28 PM 61.9°F16.6°C 55.6°F13.1°C 80% Calm Calm 0.9 mph1.4 kmh 29.85 in1010.8 mb 0.00 in0.0 mm 0.00 in0.0 mm 0.00 in0.0 mm
09:38 PM 61.0°F16.1°C 54.7°F12.6°C 80% Calm Calm -- 29.85 in1010.8 mb 0.00 in0.0 mm 0.00 in0.0 mm 0.00 in0.0 mm
09:48 PM 60.3°F15.7°C 54.1°F12.3°C 80% Calm Calm 1.0 mph1.6 kmh 29.85 in1010.8 mb 0.00 in0.0 mm 0.00 in0.0 mm 0.00 in0.0 mm
09:58 PM 59.7°F15.4°C 54.0°F12.2°C 81% Calm Calm 0.9 mph1.4 kmh 29.85 in1010.8 mb 0.00 in0.0 mm 0.00 in0.0 mm 0.00 in0.0 mm
10:08 PM 59.4°F15.2°C 53.8°F12.1°C 82% Calm Calm -- 29.85 in1010.8 mb 0.00 in0.0 mm 0.00 in0.0 mm 0.00 in0.0 mm
10:18 PM 59.2°F15.1°C 54.0°F12.2°C 83% Calm Calm -- 29.85 in1010.8 mb 0.00 in0.0 mm 0.00 in0.0 mm 0.00 in0.0 mm
10:28 PM 58.6°F14.8°C 53.4°F11.9°C 83% Calm Calm -- 29.85 in1010.8 mb 0.00 in0.0 mm 0.00 in0.0 mm 0.00 in0.0 mm
10:38 PM 58.3°F14.6°C 53.4°F11.9°C 84% Calm Calm -- 29.85 in1010.8 mb 0.00 in0.0 mm 0.00 in0.0 mm 0.00 in0.0 mm
10:48 PM 58.1°F14.5°C 53.6°F12.0°C 85% Calm Calm -- 29.85 in1010.8 mb 0.00 in0.0 mm 0.00 in0.0 mm 0.00 in0.0 mm
10:58 PM 57.7°F14.3°C 53.2°F11.8°C 85% Calm Calm -- 29.85 in1010.8 mb 0.00 in0.0 mm 0.00 in0.0 mm 0.00 in0.0 mm
11:08 PM 57.6°F14.2°C 53.4°F11.9°C 86% Calm Calm -- 29.85 in1010.8 mb 0.00 in0.0 mm 0.00 in0.0 mm 0.00 in0.0 mm
11:18 PM 57.6°F14.2°C 53.1°F11.7°C 85% Calm Calm -- 29.85 in1010.8 mb 0.00 in0.0 mm 0.00 in0.0 mm 0.00 in0.0 mm
11:28 PM 57.0°F13.9°C 52.9°F11.6°C 86% Calm Calm -- 29.85 in1010.8 mb 0.00 in0.0 mm 0.00 in0.0 mm 0.00 in0.0 mm
11:38 PM 56.7°F13.7°C 52.2°F11.2°C 85% Calm Calm -- 29.86 in1011.2 mb 0.00 in0.0 mm 0.00 in0.0 mm 0.00 in0.0 mm
11:48 PM 56.7°F13.7°C 51.6°F10.9°C 83% Calm Calm 1.0 mph1.6 kmh 29.85 in1010.8 mb 0.00 in0.0 mm 0.00 in0.0 mm 0.00 in0.0 mm
11:58 PM 56.7°F13.7°C 51.6°F10.9°C 83% Calm Calm 0.9 mph1.4 kmh 29.85 in1010.8 mb 0.00 in0.0 mm 0.00 in0.0 mm 0.00 in0.0 mm